Terminal Aerodrome Forecast
Issued by NWS Des Moines, IA

Home | Current Version | Previous Version | Text Only | Print | Product List | Glossary On
Versions: 1 2 3 4 5 6 7 8 9 10 11 12 13 14 15 16 17 18 19 20 21 22 23 24 25 26 27 28 29 30 31 32 33 34 35 36 37 38
000
FTUS43 KDMX 251125
TAFALO
TAF
KALO 251125Z 2512/2612 05013G20KT P6SM VCSH OVC007
     FM251400 05014G22KT 5SM BR VCSH OVC005
     FM252300 05011KT P6SM VCSH OVC007
     FM260300 05009KT P6SM VCSH OVC003
     FM260600 03008KT P6SM OVC003=

USA.gov is the U.S. government's official web portal to all federal, state and local government web resources and services.